AAL120 KJFK-OTHH
Flight info
| Callsign | AAL120 |
|---|---|
| Flight time | N/A |
| Altitude | 25000 |
| Route | GREKI DCT JUDDS DCT MARTN DCT EBONY/N0491F290 N567B TUDEP/M079F270 DCT 52N050W 54N040W 55N030W 55N020W DCT DOGAL DCT BEXET/N0479F290 DCT MORAG DCT NUCHU L607 BIG/N0480F310 L15 SANDY/N0479F350 L15 MOTOX DCT RUCAC DCT LESDO DCT ETINO DCT LUPEN DCT BATUB DCT MOMUK DCT GEDSO DCT VEKEN DCT NEMEK DCT AKIKA DCT MAVAR DCT BITLA DCT KEA DCT PAXIS Y707 OBRAN L321 REXUM M872 BDB Y214 RAPMA/N0485F290 Y214 ASPUS Y432 LADBO T142 LAEEB |
| Aircraft | B77W/H-SDE1E2E3FGHIJ2J3J4J5M1RWXY/LB1D1 |
Departure
| Time | 2026-05-08 05:16 |
|---|---|
| Airport | John F. Kennedy International Airport (KJFK) |
Arrival
| Time | N/A |
|---|---|
| Airport | Hamad International Airport (OTHH) |
| Time | Latitude | Longitude | Altitude | Speed | Heading |
|---|---|---|---|---|---|
| 2026-05-08 04:19 | 40.64079 | -73.78110 | 28 ft | 0 kts | 240° |
| 2026-05-08 05:00 | 40.64090 | -73.78085 | 26 ft | 4 kts | 240° |
| 2026-05-08 05:01 | 40.64101 | -73.78058 | 25 ft | 4 kts | 239° |
| 2026-05-08 05:01 | 40.64118 | -73.78037 | 25 ft | 4 kts | 181° |
| 2026-05-08 05:01 | 40.64142 | -73.78046 | 25 ft | 4 kts | 151° |
| 2026-05-08 05:01 | 40.64156 | -73.78056 | 25 ft | 1 kts | 151° |
| 2026-05-08 05:02 | 40.64158 | -73.78057 | 26 ft | 0 kts | 151° |
| 2026-05-08 05:04 | 40.64154 | -73.78055 | 25 ft | 2 kts | 151° |
| 2026-05-08 05:04 | 40.64129 | -73.78036 | 26 ft | 6 kts | 151° |
| 2026-05-08 05:04 | 40.64102 | -73.78016 | 27 ft | 1 kts | 151° |
| 2026-05-08 05:05 | 40.64096 | -73.78012 | 26 ft | 2 kts | 149° |
| 2026-05-08 05:05 | 40.64084 | -73.77998 | 28 ft | 3 kts | 137° |
| 2026-05-08 05:05 | 40.64068 | -73.77961 | 28 ft | 6 kts | 107° |
| 2026-05-08 05:05 | 40.64067 | -73.77898 | 28 ft | 8 kts | 95° |
| 2026-05-08 05:06 | 40.64066 | -73.77879 | 28 ft | 3 kts | 92° |
| 2026-05-08 05:06 | 40.64070 | -73.77843 | 28 ft | 5 kts | 74° |
| 2026-05-08 05:06 | 40.64090 | -73.77790 | 28 ft | 8 kts | 63° |
| 2026-05-08 05:06 | 40.64119 | -73.77717 | 28 ft | 10 kts | 62° |
| 2026-05-08 05:07 | 40.64138 | -73.77671 | 28 ft | 1 kts | 59° |
| 2026-05-08 05:07 | 40.64146 | -73.77652 | 28 ft | 4 kts | 60° |
| 2026-05-08 05:07 | 40.64164 | -73.77612 | 28 ft | 6 kts | 57° |
| 2026-05-08 05:07 | 40.64207 | -73.77578 | 27 ft | 9 kts | 23° |
| 2026-05-08 05:08 | 40.64268 | -73.77537 | 27 ft | 11 kts | 29° |
| 2026-05-08 05:08 | 40.64326 | -73.77495 | 27 ft | 10 kts | 29° |
| 2026-05-08 05:08 | 40.64343 | -73.77483 | 27 ft | 4 kts | 27° |
| 2026-05-08 05:08 | 40.64376 | -73.77472 | 27 ft | 6 kts | 12° |
| 2026-05-08 05:09 | 40.64418 | -73.77440 | 27 ft | 8 kts | 42° |
| 2026-05-08 05:09 | 40.64438 | -73.77365 | 27 ft | 10 kts | 97° |
| 2026-05-08 05:09 | 40.64440 | -73.77264 | 27 ft | 12 kts | 71° |
| 2026-05-08 05:09 | 40.64445 | -73.77186 | 27 ft | 7 kts | 87° |
| 2026-05-08 05:10 | 40.64450 | -73.77123 | 27 ft | 8 kts | 53° |
| 2026-05-08 05:10 | 40.64558 | -73.77071 | 29 ft | 9 kts | 48° |
| 2026-05-08 05:10 | 40.64571 | -73.76992 | 28 ft | 5 kts | 85° |
| 2026-05-08 05:11 | 40.64588 | -73.76942 | 26 ft | 7 kts | 51° |
| 2026-05-08 05:11 | 40.64638 | -73.76887 | 24 ft | 11 kts | 33° |
| 2026-05-08 05:11 | 40.64690 | -73.76845 | 23 ft | 9 kts | 32° |
| 2026-05-08 05:11 | 40.64751 | -73.76797 | 26 ft | 11 kts | 30° |
| 2026-05-08 05:12 | 40.64793 | -73.76765 | 26 ft | 7 kts | 30° |
| 2026-05-08 05:12 | 40.64838 | -73.76729 | 26 ft | 8 kts | 31° |
| 2026-05-08 05:12 | 40.64895 | -73.76685 | 32 ft | 11 kts | 30° |
| 2026-05-08 05:12 | 40.64962 | -73.76632 | 31 ft | 7 kts | 30° |
| 2026-05-08 05:13 | 40.65013 | -73.76593 | 30 ft | 8 kts | 30° |
| 2026-05-08 05:13 | 40.65054 | -73.76561 | 29 ft | 6 kts | 30° |
| 2026-05-08 05:13 | 40.65089 | -73.76532 | 32 ft | 6 kts | 41° |
| 2026-05-08 05:13 | 40.65094 | -73.76476 | 27 ft | 7 kts | 105° |
| 2026-05-08 05:14 | 40.65073 | -73.76418 | 27 ft | 6 kts | 120° |
| 2026-05-08 05:14 | 40.65053 | -73.76375 | 27 ft | 5 kts | 127° |
| 2026-05-08 05:14 | 40.65014 | -73.76366 | 27 ft | 7 kts | 197° |
| 2026-05-08 05:14 | 40.64981 | -73.76389 | 27 ft | 0 kts | 212° |
| 2026-05-08 05:15 | 40.64979 | -73.76391 | 27 ft | 2 kts | 212° |
| 2026-05-08 05:15 | 40.64900 | -73.76454 | 26 ft | 26 kts | 211° |
| 2026-05-08 05:15 | 40.64629 | -73.76668 | 26 ft | 79 kts | 211° |
| 2026-05-08 05:15 | 40.63913 | -73.77224 | 31 ft | 159 kts | 211° |
| 2026-05-08 05:16 | 40.62780 | -73.78146 | 142 ft | 213 kts | 212° |
| 2026-05-08 05:16 | 40.61545 | -73.79143 | 1206 ft | 202 kts | 211° |
| 2026-05-08 05:16 | 40.60320 | -73.80084 | 2142 ft | 208 kts | 210° |
| 2026-05-08 05:16 | 40.59018 | -73.81092 | 2686 ft | 228 kts | 213° |
| 2026-05-08 05:17 | 40.57642 | -73.82239 | 3275 ft | 244 kts | 213° |
| 2026-05-08 05:17 | 40.56188 | -73.83481 | 4064 ft | 252 kts | 214° |
| 2026-05-08 05:17 | 40.54721 | -73.84771 | 4904 ft | 257 kts | 216° |
| 2026-05-08 05:17 | 40.53237 | -73.86129 | 5490 ft | 263 kts | 217° |
| 2026-05-08 05:18 | 40.51809 | -73.87620 | 6080 ft | 262 kts | 233° |
| 2026-05-08 05:18 | 40.51083 | -73.89759 | 6607 ft | 259 kts | 266° |
| 2026-05-08 05:18 | 40.51326 | -73.92078 | 7300 ft | 258 kts | 291° |
| 2026-05-08 05:18 | 40.52256 | -73.94096 | 7999 ft | 261 kts | 311° |
| 2026-05-08 05:19 | 40.53728 | -73.95515 | 8701 ft | 267 kts | 333° |
| 2026-05-08 05:19 | 40.55555 | -73.95978 | 9322 ft | 280 kts | 358° |
| 2026-05-08 05:19 | 40.57478 | -73.95319 | 9885 ft | 292 kts | 19° |
| 2026-05-08 05:19 | 40.59329 | -73.94094 | 10255 ft | 305 kts | 21° |
| 2026-05-08 05:20 | 40.61266 | -73.92738 | 10412 ft | 325 kts | 22° |
| 2026-05-08 05:20 | 40.63325 | -73.91275 | 10583 ft | 345 kts | 23° |
| 2026-05-08 05:20 | 40.65502 | -73.89725 | 10759 ft | 366 kts | 23° |
| 2026-05-08 05:20 | 40.67781 | -73.88105 | 11151 ft | 378 kts | 23° |
| 2026-05-08 05:21 | 40.70126 | -73.86442 | 11684 ft | 386 kts | 23° |
| 2026-05-08 05:21 | 40.72512 | -73.84756 | 12340 ft | 392 kts | 23° |
| 2026-05-08 05:21 | 40.74932 | -73.83053 | 13030 ft | 396 kts | 22° |
| 2026-05-08 05:21 | 40.77348 | -73.81358 | 13698 ft | 401 kts | 22° |
| 2026-05-08 05:22 | 40.79835 | -73.79617 | 14204 ft | 408 kts | 22° |
| 2026-05-08 05:22 | 40.82370 | -73.77844 | 14695 ft | 416 kts | 22° |
| 2026-05-08 05:22 | 40.84946 | -73.76042 | 15286 ft | 420 kts | 22° |
| 2026-05-08 05:22 | 40.87549 | -73.74219 | 15875 ft | 426 kts | 22° |
| 2026-05-08 05:23 | 40.90193 | -73.72367 | 16343 ft | 434 kts | 22° |
| 2026-05-08 05:23 | 40.92887 | -73.70478 | 16845 ft | 441 kts | 21° |
| 2026-05-08 05:23 | 40.95617 | -73.68562 | 17366 ft | 448 kts | 21° |
| 2026-05-08 05:23 | 40.98390 | -73.66613 | 17882 ft | 454 kts | 21° |
| 2026-05-08 05:24 | 41.01206 | -73.64632 | 18322 ft | 462 kts | 22° |
| 2026-05-08 05:24 | 41.04075 | -73.62614 | 18652 ft | 471 kts | 22° |
| 2026-05-08 05:24 | 41.06944 | -73.60589 | 19153 ft | 475 kts | 22° |
| 2026-05-08 05:24 | 41.09875 | -73.58517 | 19667 ft | 479 kts | 22° |
| 2026-05-08 05:25 | 41.12826 | -73.56429 | 20136 ft | 484 kts | 21° |
| 2026-05-08 05:25 | 41.15815 | -73.54314 | 20590 ft | 489 kts | 21° |
| 2026-05-08 05:25 | 41.18833 | -73.52178 | 21033 ft | 494 kts | 21° |
| 2026-05-08 05:25 | 41.21883 | -73.50017 | 21548 ft | 499 kts | 21° |
| 2026-05-08 05:26 | 41.24956 | -73.47836 | 22030 ft | 503 kts | 21° |
| 2026-05-08 05:26 | 41.28065 | -73.45628 | 22438 ft | 508 kts | 21° |
| 2026-05-08 05:26 | 41.31207 | -73.43394 | 22831 ft | 514 kts | 21° |
| 2026-05-08 05:26 | 41.34379 | -73.41135 | 23225 ft | 519 kts | 21° |
| 2026-05-08 05:27 | 41.37540 | -73.38879 | 23594 ft | 524 kts | 21° |
| 2026-05-08 05:27 | 41.40770 | -73.36573 | 24033 ft | 527 kts | 21° |
| 2026-05-08 05:27 | 41.43997 | -73.34251 | 24531 ft | 528 kts | 23° |
| 2026-05-08 05:27 | 41.47128 | -73.31631 | 24968 ft | 535 kts | 29° |
| 2026-05-08 05:28 | 41.50125 | -73.28610 | 25329 ft | 542 kts | 35° |
| 2026-05-08 05:28 | 41.52908 | -73.25164 | 25606 ft | 551 kts | 42° |
| 2026-05-08 05:28 | 41.55568 | -73.21441 | 25912 ft | 555 kts | 43° |
| 2026-05-08 05:28 | 41.58268 | -73.17744 | 26293 ft | 554 kts | 40° |
| 2026-05-08 05:29 | 41.61237 | -73.14551 | 26548 ft | 544 kts | 23° |
| 2026-05-08 05:29 | 41.64666 | -73.12609 | 26810 ft | 528 kts | 6° |
| 2026-05-08 05:29 | 41.68175 | -73.11776 | 27187 ft | 511 kts | 353° |
| 2026-05-08 05:29 | 41.71659 | -73.11890 | 27551 ft | 490 kts | 341° |
| 2026-05-08 05:30 | 41.75030 | -73.12567 | 27799 ft | 492 kts | 340° |
| 2026-05-08 05:30 | 41.78430 | -73.13237 | 28093 ft | 496 kts | 341° |
| 2026-05-08 05:30 | 41.81863 | -73.13878 | 28387 ft | 499 kts | 341° |
| 2026-05-08 05:30 | 41.85314 | -73.14492 | 28763 ft | 500 kts | 342° |
| 2026-05-08 05:31 | 41.88779 | -73.15088 | 29109 ft | 502 kts | 342° |
| 2026-05-08 05:31 | 41.92164 | -73.15663 | 29409 ft | 503 kts | 342° |
| 2026-05-08 05:31 | 41.95709 | -73.16261 | 29776 ft | 502 kts | 342° |
| 2026-05-08 05:31 | 41.99175 | -73.16846 | 30196 ft | 501 kts | 342° |
| 2026-05-08 05:32 | 42.02609 | -73.17431 | 30321 ft | 505 kts | 342° |
| 2026-05-08 05:32 | 42.06144 | -73.18037 | 30537 ft | 506 kts | 342° |
| 2026-05-08 05:32 | 42.09642 | -73.18634 | 30815 ft | 506 kts | 342° |
| 2026-05-08 05:33 | 42.16616 | -73.19831 | 30900 ft | 508 kts | 342° |
| 2026-05-08 05:33 | 42.23610 | -73.21028 | 30876 ft | 504 kts | 343° |
| 2026-05-08 05:34 | 42.30590 | -73.22232 | 30882 ft | 506 kts | 343° |
| 2026-05-08 05:34 | 42.37596 | -73.23445 | 30888 ft | 508 kts | 343° |
| 2026-05-08 05:35 | 42.44643 | -73.24666 | 30889 ft | 511 kts | 343° |
| 2026-05-08 05:35 | 42.51694 | -73.25668 | 30870 ft | 521 kts | 354° |
| 2026-05-08 05:35 | 42.55328 | -73.24827 | 30871 ft | 541 kts | 13° |
| 2026-05-08 05:36 | 42.58740 | -73.22500 | 30903 ft | 556 kts | 32° |
| 2026-05-08 05:36 | 42.61616 | -73.18962 | 30919 ft | 564 kts | 50° |
| 2026-05-08 05:36 | 42.63749 | -73.14477 | 30901 ft | 562 kts | 62° |
| 2026-05-08 05:37 | 42.67448 | -73.05084 | 30915 ft | 565 kts | 62° |
| 2026-05-08 05:37 | 42.71214 | -72.95757 | 30906 ft | 566 kts | 60° |
| 2026-05-08 05:38 | 42.75092 | -72.86397 | 30938 ft | 569 kts | 60° |
| 2026-05-08 05:38 | 42.79017 | -72.76992 | 31033 ft | 573 kts | 60° |
| 2026-05-08 05:38 | 42.80976 | -72.72281 | 31383 ft | 571 kts | 60° |
| 2026-05-08 05:39 | 42.82926 | -72.67582 | 31755 ft | 568 kts | 60° |
| 2026-05-08 05:39 | 42.84860 | -72.62906 | 32099 ft | 566 kts | 60° |
| 2026-05-08 05:39 | 42.86793 | -72.58219 | 32311 ft | 566 kts | 61° |
| 2026-05-08 05:39 | 42.88724 | -72.53527 | 32464 ft | 568 kts | 61° |
| 2026-05-08 05:40 | 42.90647 | -72.48844 | 32905 ft | 564 kts | 61° |
| 2026-05-08 05:40 | 42.94506 | -72.39434 | 32898 ft | 568 kts | 61° |
| 2026-05-08 05:41 | 42.98317 | -72.30111 | 32892 ft | 562 kts | 61° |
| 2026-05-08 05:41 | 43.02120 | -72.20779 | 32911 ft | 563 kts | 61° |
| 2026-05-08 05:42 | 43.05949 | -72.11348 | 32887 ft | 567 kts | 61° |
| 2026-05-08 05:42 | 43.09743 | -72.01975 | 32881 ft | 566 kts | 62° |
| 2026-05-08 05:43 | 43.13551 | -71.92539 | 32877 ft | 564 kts | 62° |
| 2026-05-08 05:43 | 43.17345 | -71.83107 | 32891 ft | 565 kts | 62° |
| 2026-05-08 05:44 | 43.21143 | -71.73629 | 32876 ft | 567 kts | 62° |
| 2026-05-08 05:44 | 43.24925 | -71.64163 | 32876 ft | 569 kts | 62° |
| 2026-05-08 05:45 | 43.28084 | -71.56231 | 32871 ft | 570 kts | 62° |
| 2026-05-08 05:45 | 43.31889 | -71.46651 | 32873 ft | 572 kts | 62° |
| 2026-05-08 05:46 | 43.35702 | -71.37015 | 32873 ft | 574 kts | 62° |
| 2026-05-08 05:46 | 43.39517 | -71.27343 | 32854 ft | 576 kts | 62° |
| 2026-05-08 05:47 | 43.43331 | -71.17641 | 32895 ft | 576 kts | 63° |
| 2026-05-08 05:47 | 43.47119 | -71.07971 | 32846 ft | 575 kts | 63° |
| 2026-05-08 05:48 | 43.50901 | -70.98285 | 32725 ft | 573 kts | 63° |
| 2026-05-08 05:48 | 43.54666 | -70.88607 | 32659 ft | 570 kts | 63° |
| 2026-05-08 05:49 | 43.58374 | -70.79046 | 32650 ft | 568 kts | 63° |
| 2026-05-08 05:49 | 43.62088 | -70.69436 | 32593 ft | 565 kts | 63° |
| 2026-05-08 05:50 | 43.65795 | -70.59808 | 32665 ft | 570 kts | 63° |
| 2026-05-08 05:50 | 43.69511 | -70.50123 | 32645 ft | 575 kts | 63° |
| 2026-05-08 05:51 | 43.73251 | -70.40346 | 32637 ft | 575 kts | 64° |
| 2026-05-08 05:51 | 43.76977 | -70.30573 | 32638 ft | 573 kts | 64° |
| 2026-05-08 05:52 | 43.80687 | -70.20807 | 32638 ft | 572 kts | 64° |
| 2026-05-08 05:52 | 43.84376 | -70.11063 | 32638 ft | 569 kts | 64° |
| 2026-05-08 05:53 | 43.88025 | -70.01387 | 32642 ft | 569 kts | 64° |
| 2026-05-08 05:53 | 43.91687 | -69.91643 | 32643 ft | 568 kts | 64° |
| 2026-05-08 05:54 | 43.95340 | -69.81891 | 32643 ft | 569 kts | 64° |
| 2026-05-08 05:54 | 43.98983 | -69.72130 | 32632 ft | 570 kts | 65° |
| 2026-05-08 05:55 | 44.02625 | -69.62341 | 32586 ft | 570 kts | 65° |
| 2026-05-08 05:55 | 44.06232 | -69.52612 | 32628 ft | 569 kts | 65° |
| 2026-05-08 05:56 | 44.09851 | -69.42811 | 32649 ft | 570 kts | 65° |
| 2026-05-08 05:56 | 44.13466 | -69.32987 | 32619 ft | 570 kts | 65° |
| 2026-05-08 05:57 | 44.17080 | -69.23135 | 32616 ft | 571 kts | 65° |
| 2026-05-08 05:57 | 44.20684 | -69.13271 | 32612 ft | 571 kts | 66° |
| 2026-05-08 05:58 | 44.24277 | -69.03405 | 32587 ft | 569 kts | 66° |
| 2026-05-08 05:58 | 44.27851 | -68.93557 | 32598 ft | 568 kts | 66° |
| 2026-05-08 05:59 | 44.31390 | -68.83767 | 32598 ft | 567 kts | 66° |
| 2026-05-08 05:59 | 44.34933 | -68.73931 | 32588 ft | 567 kts | 66° |
| 2026-05-08 06:00 | 44.38469 | -68.64079 | 32594 ft | 567 kts | 66° |
| 2026-05-08 06:00 | 44.41999 | -68.54207 | 32591 ft | 567 kts | 66° |
| 2026-05-08 06:01 | 44.45509 | -68.44362 | 32589 ft | 564 kts | 67° |
| 2026-05-08 06:01 | 44.48988 | -68.34563 | 32608 ft | 564 kts | 67° |
| 2026-05-08 06:02 | 44.52471 | -68.24715 | 32601 ft | 563 kts | 67° |
| 2026-05-08 06:02 | 44.55949 | -68.14850 | 32578 ft | 563 kts | 67° |
| 2026-05-08 06:03 | 44.59413 | -68.04986 | 32581 ft | 563 kts | 67° |
| 2026-05-08 06:03 | 44.62844 | -67.95183 | 32523 ft | 563 kts | 68° |
| 2026-05-08 06:04 | 44.66284 | -67.85321 | 32567 ft | 561 kts | 68° |
| 2026-05-08 06:04 | 44.69711 | -67.75453 | 32565 ft | 561 kts | 68° |
| 2026-05-08 06:05 | 44.73123 | -67.65595 | 32566 ft | 560 kts | 68° |
| 2026-05-08 06:05 | 44.76529 | -67.55717 | 32563 ft | 560 kts | 68° |
| 2026-05-08 06:06 | 44.79905 | -67.45892 | 32560 ft | 560 kts | 68° |
| 2026-05-08 06:06 | 44.83289 | -67.36006 | 32523 ft | 559 kts | 69° |
| 2026-05-08 06:07 | 44.86657 | -67.26133 | 32569 ft | 559 kts | 69° |
| 2026-05-08 06:07 | 44.90195 | -67.16362 | 32541 ft | 562 kts | 63° |
| 2026-05-08 06:08 | 44.94786 | -67.07345 | 32551 ft | 565 kts | 53° |
| 2026-05-08 06:08 | 44.99754 | -66.98822 | 32546 ft | 566 kts | 52° |
| 2026-05-08 06:09 | 45.04755 | -66.90186 | 32548 ft | 566 kts | 53° |
| 2026-05-08 06:09 | 45.09710 | -66.81489 | 32551 ft | 567 kts | 54° |
| 2026-05-08 06:10 | 45.14606 | -66.72818 | 32548 ft | 567 kts | 54° |
| 2026-05-08 06:10 | 45.19537 | -66.64058 | 32542 ft | 567 kts | 54° |
| 2026-05-08 06:11 | 45.24461 | -66.55295 | 32547 ft | 568 kts | 54° |
| 2026-05-08 06:11 | 45.29379 | -66.46520 | 32542 ft | 568 kts | 54° |
| 2026-05-08 06:12 | 45.34298 | -66.37717 | 32537 ft | 569 kts | 55° |
| 2026-05-08 06:12 | 45.39188 | -66.28936 | 32530 ft | 569 kts | 55° |
| 2026-05-08 06:13 | 45.44107 | -66.20075 | 32531 ft | 569 kts | 55° |
| 2026-05-08 06:13 | 45.49012 | -66.11212 | 32530 ft | 570 kts | 55° |
| 2026-05-08 06:14 | 45.53915 | -66.02325 | 32527 ft | 570 kts | 55° |
| 2026-05-08 06:14 | 45.58781 | -65.93476 | 32521 ft | 570 kts | 55° |
| 2026-05-08 06:15 | 45.63673 | -65.84555 | 32474 ft | 571 kts | 56° |
| 2026-05-08 06:15 | 45.68562 | -65.75612 | 32514 ft | 571 kts | 56° |
| 2026-05-08 06:16 | 45.73460 | -65.66617 | 32523 ft | 573 kts | 56° |
| 2026-05-08 06:16 | 45.78371 | -65.57572 | 32512 ft | 575 kts | 56° |
| 2026-05-08 06:17 | 45.85743 | -65.43943 | 32509 ft | 577 kts | 56° |
| 2026-05-08 06:17 | 45.90651 | -65.34833 | 32513 ft | 577 kts | 56° |
| 2026-05-08 06:18 | 45.95559 | -65.25692 | 32514 ft | 577 kts | 56° |
| 2026-05-08 06:18 | 46.00452 | -65.16550 | 32509 ft | 576 kts | 56° |
| 2026-05-08 06:19 | 46.05311 | -65.07442 | 32498 ft | 576 kts | 56° |
| 2026-05-08 06:19 | 46.10186 | -64.98274 | 32492 ft | 575 kts | 57° |
| 2026-05-08 06:20 | 46.15039 | -64.89117 | 32497 ft | 574 kts | 57° |
| 2026-05-08 06:20 | 46.19851 | -64.80008 | 32488 ft | 574 kts | 57° |
| 2026-05-08 06:21 | 46.24690 | -64.70815 | 32500 ft | 574 kts | 57° |
| 2026-05-08 06:21 | 46.29518 | -64.61612 | 32504 ft | 575 kts | 57° |
| 2026-05-08 06:22 | 46.34347 | -64.52379 | 32504 ft | 575 kts | 57° |
| 2026-05-08 06:22 | 46.39145 | -64.43178 | 32484 ft | 576 kts | 57° |
| 2026-05-08 06:23 | 46.43977 | -64.33878 | 32486 ft | 577 kts | 57° |
| 2026-05-08 06:23 | 46.48805 | -64.24556 | 32481 ft | 578 kts | 57° |
| 2026-05-08 06:24 | 46.53626 | -64.15216 | 32497 ft | 578 kts | 58° |
| 2026-05-08 06:24 | 46.58448 | -64.05844 | 32472 ft | 579 kts | 58° |
| 2026-05-08 06:25 | 46.63268 | -63.96440 | 32484 ft | 580 kts | 58° |
| 2026-05-08 06:25 | 46.68104 | -63.86974 | 32486 ft | 582 kts | 58° |
| 2026-05-08 06:26 | 46.72914 | -63.77529 | 32483 ft | 584 kts | 58° |
| 2026-05-08 06:26 | 46.77751 | -63.67997 | 32490 ft | 585 kts | 58° |
| 2026-05-08 06:27 | 46.82589 | -63.58432 | 32488 ft | 585 kts | 59° |
| 2026-05-08 06:27 | 46.87413 | -63.48863 | 32484 ft | 585 kts | 59° |
| 2026-05-08 06:28 | 46.92201 | -63.39331 | 32487 ft | 584 kts | 59° |
| 2026-05-08 06:28 | 46.97007 | -63.29729 | 32486 ft | 584 kts | 59° |
| 2026-05-08 06:29 | 47.01810 | -63.20100 | 32413 ft | 584 kts | 60° |
| 2026-05-08 06:29 | 47.06574 | -63.10514 | 32486 ft | 585 kts | 60° |
| 2026-05-08 06:30 | 47.11372 | -63.00822 | 32498 ft | 588 kts | 60° |
| 2026-05-08 06:30 | 47.16196 | -62.91049 | 32493 ft | 592 kts | 61° |
| 2026-05-08 06:31 | 47.21040 | -62.81197 | 32499 ft | 595 kts | 61° |
| 2026-05-08 06:31 | 47.25874 | -62.71335 | 32499 ft | 598 kts | 61° |
| 2026-05-08 06:32 | 47.30733 | -62.61388 | 32507 ft | 599 kts | 61° |
| 2026-05-08 06:32 | 47.34803 | -62.53030 | 32499 ft | 599 kts | 61° |
| 2026-05-08 06:33 | 47.39623 | -62.43098 | 32493 ft | 598 kts | 61° |
| 2026-05-08 06:33 | 47.44451 | -62.33111 | 32472 ft | 596 kts | 62° |
| 2026-05-08 06:34 | 47.49266 | -62.23112 | 32432 ft | 596 kts | 63° |
| 2026-05-08 06:34 | 47.54078 | -62.13079 | 32506 ft | 599 kts | 63° |
| 2026-05-08 06:35 | 47.58874 | -62.03039 | 32511 ft | 602 kts | 63° |
| 2026-05-08 06:35 | 47.63728 | -61.92848 | 32506 ft | 606 kts | 63° |
| 2026-05-08 06:36 | 47.68586 | -61.82615 | 32496 ft | 607 kts | 63° |
| 2026-05-08 06:36 | 47.73444 | -61.72348 | 32484 ft | 606 kts | 63° |
| 2026-05-08 06:37 | 47.78245 | -61.62161 | 32475 ft | 604 kts | 63° |
| 2026-05-08 06:37 | 47.83052 | -61.51920 | 32492 ft | 602 kts | 63° |
| 2026-05-08 06:38 | 47.87840 | -61.41677 | 32495 ft | 601 kts | 63° |
| 2026-05-08 06:38 | 47.92574 | -61.31511 | 32488 ft | 600 kts | 63° |
| 2026-05-08 06:39 | 47.97312 | -61.21307 | 32491 ft | 596 kts | 63° |
| 2026-05-08 06:39 | 48.02008 | -61.11150 | 32483 ft | 594 kts | 63° |
| 2026-05-08 06:40 | 48.06687 | -61.00988 | 32492 ft | 592 kts | 64° |
| 2026-05-08 06:40 | 48.11351 | -60.90821 | 32497 ft | 592 kts | 64° |
| 2026-05-08 06:41 | 48.16005 | -60.80638 | 32497 ft | 592 kts | 64° |
| 2026-05-08 06:41 | 48.20628 | -60.70485 | 32491 ft | 593 kts | 64° |
| 2026-05-08 06:42 | 48.25286 | -60.60217 | 32498 ft | 595 kts | 64° |
| 2026-05-08 06:42 | 48.29937 | -60.49929 | 32493 ft | 595 kts | 64° |
| 2026-05-08 06:43 | 48.34585 | -60.39607 | 32489 ft | 596 kts | 64° |
| 2026-05-08 06:43 | 48.39199 | -60.29324 | 32403 ft | 597 kts | 63° |
| 2026-05-08 06:44 | 48.43822 | -60.18985 | 32503 ft | 593 kts | 63° |
| 2026-05-08 06:44 | 48.48427 | -60.08645 | 32484 ft | 592 kts | 64° |
| 2026-05-08 06:45 | 48.53004 | -59.98322 | 32482 ft | 591 kts | 64° |
| 2026-05-08 06:45 | 48.57542 | -59.88048 | 32488 ft | 591 kts | 64° |
| 2026-05-08 06:46 | 48.62088 | -59.77717 | 32494 ft | 590 kts | 64° |
| 2026-05-08 06:46 | 48.66633 | -59.67349 | 32489 ft | 591 kts | 64° |
| 2026-05-08 06:47 | 48.71169 | -59.56962 | 32489 ft | 591 kts | 64° |
| 2026-05-08 06:47 | 48.75701 | -59.46545 | 32494 ft | 592 kts | 64° |
| 2026-05-08 06:48 | 48.80198 | -59.36168 | 32493 ft | 593 kts | 64° |
| 2026-05-08 06:48 | 48.84719 | -59.25697 | 32411 ft | 593 kts | 64° |
| 2026-05-08 06:49 | 48.89228 | -59.15216 | 32486 ft | 591 kts | 64° |
| 2026-05-08 06:49 | 48.93711 | -59.04751 | 32481 ft | 590 kts | 64° |
| 2026-05-08 06:50 | 48.98157 | -58.94329 | 32484 ft | 589 kts | 64° |
| 2026-05-08 06:50 | 49.02617 | -58.83834 | 32487 ft | 589 kts | 64° |
| 2026-05-08 06:51 | 49.07057 | -58.73344 | 32481 ft | 589 kts | 64° |
| 2026-05-08 06:51 | 49.11495 | -58.62821 | 32482 ft | 589 kts | 64° |
| 2026-05-08 06:52 | 49.15930 | -58.52260 | 32480 ft | 590 kts | 64° |
| 2026-05-08 06:52 | 49.20324 | -58.41757 | 32479 ft | 590 kts | 64° |
| 2026-05-08 06:53 | 49.24737 | -58.31168 | 32469 ft | 590 kts | 64° |
| 2026-05-08 06:53 | 49.29148 | -58.20541 | 32478 ft | 591 kts | 64° |
| 2026-05-08 06:54 | 49.33531 | -58.09941 | 32434 ft | 587 kts | 64° |
| 2026-05-08 06:54 | 49.37884 | -57.99375 | 32457 ft | 584 kts | 64° |
| 2026-05-08 06:55 | 49.42213 | -57.88816 | 32440 ft | 583 kts | 64° |
| 2026-05-08 06:55 | 49.46501 | -57.78315 | 32446 ft | 582 kts | 64° |
| 2026-05-08 06:56 | 49.50797 | -57.67751 | 32445 ft | 583 kts | 64° |
| 2026-05-08 06:56 | 49.55093 | -57.57146 | 32431 ft | 583 kts | 64° |
| 2026-05-08 06:57 | 49.59382 | -57.46525 | 32434 ft | 583 kts | 64° |
| 2026-05-08 06:57 | 49.63635 | -57.35948 | 32435 ft | 583 kts | 64° |
| 2026-05-08 06:58 | 49.67901 | -57.25294 | 32421 ft | 583 kts | 65° |
| 2026-05-08 06:58 | 49.72156 | -57.14621 | 32425 ft | 582 kts | 64° |
| 2026-05-08 06:59 | 49.76373 | -57.04007 | 32409 ft | 581 kts | 64° |
| 2026-05-08 06:59 | 49.80587 | -56.93354 | 32421 ft | 580 kts | 64° |
| 2026-05-08 07:00 | 49.84784 | -56.82693 | 32430 ft | 580 kts | 64° |
| 2026-05-08 07:00 | 49.88988 | -56.71974 | 32435 ft | 581 kts | 64° |
| 2026-05-08 07:01 | 49.93184 | -56.61238 | 32432 ft | 582 kts | 64° |
| 2026-05-08 07:01 | 49.97380 | -56.50457 | 32431 ft | 583 kts | 64° |
| 2026-05-08 07:02 | 50.01568 | -56.39651 | 32438 ft | 583 kts | 64° |
| 2026-05-08 07:02 | 50.05731 | -56.28864 | 32434 ft | 583 kts | 64° |
| 2026-05-08 07:03 | 50.09904 | -56.18005 | 32431 ft | 583 kts | 64° |
| 2026-05-08 07:03 | 50.14041 | -56.07199 | 32426 ft | 582 kts | 64° |
| 2026-05-08 07:04 | 50.18180 | -55.96340 | 32432 ft | 581 kts | 64° |
| 2026-05-08 07:04 | 50.22269 | -55.85569 | 32437 ft | 578 kts | 64° |
| 2026-05-08 07:05 | 50.26380 | -55.74691 | 32440 ft | 577 kts | 64° |
| 2026-05-08 07:05 | 50.30427 | -55.63938 | 32456 ft | 575 kts | 64° |
| 2026-05-08 07:06 | 50.34476 | -55.53135 | 32440 ft | 574 kts | 64° |
| 2026-05-08 07:06 | 50.38504 | -55.42345 | 32445 ft | 572 kts | 64° |
| 2026-05-08 07:07 | 50.42489 | -55.31624 | 32441 ft | 572 kts | 64° |
| 2026-05-08 07:07 | 50.46486 | -55.20824 | 32451 ft | 571 kts | 64° |
| 2026-05-08 07:08 | 50.50472 | -55.10010 | 32456 ft | 572 kts | 64° |
| 2026-05-08 07:08 | 50.54449 | -54.99176 | 32464 ft | 573 kts | 64° |
| 2026-05-08 07:09 | 50.58426 | -54.88295 | 32464 ft | 574 kts | 64° |
| 2026-05-08 07:09 | 50.62396 | -54.77387 | 32466 ft | 574 kts | 64° |
| 2026-05-08 07:10 | 50.66334 | -54.66522 | 32465 ft | 575 kts | 64° |
| 2026-05-08 07:10 | 50.70286 | -54.55574 | 32464 ft | 575 kts | 64° |
| 2026-05-08 07:11 | 50.74233 | -54.44590 | 32471 ft | 574 kts | 64° |
| 2026-05-08 07:11 | 50.78171 | -54.33584 | 32475 ft | 574 kts | 64° |
| 2026-05-08 07:12 | 50.82092 | -54.22579 | 32481 ft | 574 kts | 64° |
| 2026-05-08 07:12 | 50.85977 | -54.11627 | 32483 ft | 574 kts | 64° |
| 2026-05-08 07:13 | 50.89876 | -54.00585 | 32486 ft | 574 kts | 64° |
| 2026-05-08 07:13 | 50.93762 | -53.89535 | 32502 ft | 573 kts | 64° |
| 2026-05-08 07:14 | 50.97640 | -53.78462 | 32498 ft | 573 kts | 64° |